Terminal Aerodrome Forecast
Issued by NWS

Home | Current Version | Previous Version | Text Only | Print | Product List | Glossary On
Versions: 1 2 3 4 5 6 7 8 9 10 11 12 13 14 15 16 17 18 19 20 21 22 23 24
000
FTUS43 KMKX 231720
TAFENW
TAF
KENW 231720Z 2318/2418 08011KT P6SM BKN250
     FM240400 07007KT P6SM -RA OVC100
     FM240600 10005KT 4SM -RA SCT035 OVC050
     FM241100 11011KT 6SM -RA OVC035
     FM241500 13015G23KT 5SM BR SCT020 OVC060=

USA.gov is the U.S. government's official web portal to all federal, state and local government web resources and services.